sensor_id;sensor_type;location;lat;lon;timestamp;pressure;altitude;pressure_sealevel;temperature;humidity
71791;BME280;59638;52.126;5.434;2023-05-14T00:00:03;102176.84;;;11.48;97.39
71791;BME280;59638;52.126;5.434;2023-05-14T00:02:30;102175.16;;;11.47;97.20
71791;BME280;59638;52.126;5.434;2023-05-14T00:04:56;102180.44;;;11.47;97.16
71791;BME280;59638;52.126;5.434;2023-05-14T00:07:23;102170.09;;;11.44;97.77
71791;BME280;59638;52.126;5.434;2023-05-14T00:09:56;102170.75;;;11.35;97.70
71791;BME280;59638;52.126;5.434;2023-05-14T00:12:24;102165.88;;;11.29;98.43
71791;BME280;59638;52.126;5.434;2023-05-14T00:14:52;102161.56;;;11.28;98.64
71791;BME280;59638;52.126;5.434;2023-05-14T00:17:18;102158.31;;;11.24;98.78
71791;BME280;59638;52.126;5.434;2023-05-14T00:19:45;102159.34;;;11.22;99.41
71791;BME280;59638;52.126;5.434;2023-05-14T00:22:11;102164.88;;;11.19;99.09
71791;BME280;59638;52.126;5.434;2023-05-14T00:24:38;102152.81;;;11.14;100.00
71791;BME280;59638;52.126;5.434;2023-05-14T00:27:04;102159.78;;;11.15;100.00
71791;BME280;59638;52.126;5.434;2023-05-14T00:29:31;102157.06;;;11.17;100.00
71791;BME280;59638;52.126;5.434;2023-05-14T00:31:58;102158.03;;;11.16;100.00
71791;BME280;59638;52.126;5.434;2023-05-14T00:34:24;102146.56;;;11.15;100.00
71791;BME280;59638;52.126;5.434;2023-05-14T00:36:51;102151.66;;;11.19;100.00
71791;BME280;59638;52.126;5.434;2023-05-14T00:39:17;102149.22;;;11.15;100.00
71791;BME280;59638;52.126;5.434;2023-05-14T00:41:43;102147.53;;;11.14;100.00
71791;BME280;59638;52.126;5.434;2023-05-14T00:44:10;102138.88;;;11.12;100.00
71791;BME280;59638;52.126;5.434;2023-05-14T00:46:36;102139.13;;;11.09;100.00
71791;BME280;59638;52.126;5.434;2023-05-14T00:49:03;102141.00;;;11.07;100.00
71791;BME280;59638;52.126;5.434;2023-05-14T00:51:30;102132.56;;;11.02;100.00
71791;BME280;59638;52.126;5.434;2023-05-14T00:53:56;102125.81;;;10.98;100.00
71791;BME280;59638;52.126;5.434;2023-05-14T00:56:23;102122.44;;;10.96;100.00
71791;BME280;59638;52.126;5.434;2023-05-14T00:58:50;102131.84;;;10.87;100.00
71791;BME280;59638;52.126;5.434;2023-05-14T01:01:16;102125.41;;;10.79;100.00
71791;BME280;59638;52.126;5.434;2023-05-14T01:03:43;102119.50;;;10.75;100.00
71791;BME280;59638;52.126;5.434;2023-05-14T01:08:52;102129.75;;;10.67;100.00
71791;BME280;59638;52.126;5.434;2023-05-14T01:11:27;102135.34;;;10.62;100.00
71791;BME280;59638;52.126;5.434;2023-05-14T01:14:24;102136.41;;;10.60;100.00
71791;BME280;59638;52.126;5.434;2023-05-14T01:16:57;102132.22;;;10.57;100.00
71791;BME280;59638;52.126;5.434;2023-05-14T01:19:39;102129.03;;;10.52;100.00
71791;BME280;59638;52.126;5.434;2023-05-14T01:22:06;102126.69;;;10.48;100.00
71791;BME280;59638;52.126;5.434;2023-05-14T01:24:33;102127.88;;;10.44;100.00
71791;BME280;59638;52.126;5.434;2023-05-14T01:27:21;102130.59;;;10.42;100.00
71791;BME280;59638;52.126;5.434;2023-05-14T01:32:47;102133.47;;;10.39;100.00
71791;BME280;59638;52.126;5.434;2023-05-14T01:35:17;102127.97;;;10.42;100.00
71791;BME280;59638;52.126;5.434;2023-05-14T01:37:44;102128.06;;;10.41;100.00
71791;BME280;59638;52.126;5.434;2023-05-14T01:40:11;102128.19;;;10.39;100.00
71791;BME280;59638;52.126;5.434;2023-05-14T01:42:38;102126.50;;;10.38;100.00
71791;BME280;59638;52.126;5.434;2023-05-14T01:45:04;102125.00;;;10.34;100.00
71791;BME280;59638;52.126;5.434;2023-05-14T01:47:31;102120.78;;;10.31;100.00
71791;BME280;59638;52.126;5.434;2023-05-14T01:49:57;102117.19;;;10.32;100.00
71791;BME280;59638;52.126;5.434;2023-05-14T01:52:24;102111.09;;;10.32;100.00
71791;BME280;59638;52.126;5.434;2023-05-14T01:54:50;102111.81;;;10.34;100.00
71791;BME280;59638;52.126;5.434;2023-05-14T01:57:17;102110.84;;;10.35;100.00
71791;BME280;59638;52.126;5.434;2023-05-14T01:59:43;102109.16;;;10.34;100.00
71791;BME280;59638;52.126;5.434;2023-05-14T02:02:09;102109.16;;;10.34;100.00
71791;BME280;59638;52.126;5.434;2023-05-14T02:04:36;102107.59;;;10.31;100.00
71791;BME280;59638;52.126;5.434;2023-05-14T02:07:02;102105.03;;;10.30;100.00
71791;BME280;59638;52.126;5.434;2023-05-14T02:09:29;102103.56;;;10.26;100.00
71791;BME280;59638;52.126;5.434;2023-05-14T02:11:55;102095.66;;;10.26;100.00
71791;BME280;59638;52.126;5.434;2023-05-14T02:14:22;102094.72;;;10.27;100.00
71791;BME280;59638;52.126;5.434;2023-05-14T02:16:48;102092.28;;;10.24;100.00
71791;BME280;59638;52.126;5.434;2023-05-14T02:19:16;102091.50;;;10.22;100.00
71791;BME280;59638;52.126;5.434;2023-05-14T02:21:45;102095.31;;;10.18;100.00
71791;BME280;59638;52.126;5.434;2023-05-14T02:24:12;102096.25;;;10.17;100.00
71791;BME280;59638;52.126;5.434;2023-05-14T02:26:38;102092.88;;;10.15;100.00
71791;BME280;59638;52.126;5.434;2023-05-14T02:29:05;102096.47;;;10.14;100.00
71791;BME280;59638;52.126;5.434;2023-05-14T02:31:31;102094.25;;;10.07;100.00
71791;BME280;59638;52.126;5.434;2023-05-14T02:33:57;102095.19;;;10.06;100.00
71791;BME280;59638;52.126;5.434;2023-05-14T02:36:24;102089.91;;;10.06;100.00
71791;BME280;59638;52.126;5.434;2023-05-14T02:38:50;102087.28;;;10.06;100.00
71791;BME280;59638;52.126;5.434;2023-05-14T02:41:17;102088.22;;;10.05;100.00
71791;BME280;59638;52.126;5.434;2023-05-14T02:43:43;102083.13;;;10.02;100.00
71791;BME280;59638;52.126;5.434;2023-05-14T02:46:09;102082.19;;;10.03;100.00
71791;BME280;59638;52.126;5.434;2023-05-14T02:48:36;102076.00;;;10.04;100.00
71791;BME280;59638;52.126;5.434;2023-05-14T02:51:02;102076.91;;;10.03;100.00
71791;BME280;59638;52.126;5.434;2023-05-14T02:53:29;102073.53;;;10.01;100.00
71791;BME280;59638;52.126;5.434;2023-05-14T02:55:55;102075.34;;;10.01;100.00
71791;BME280;59638;52.126;5.434;2023-05-14T02:58:22;102078.09;;;9.99;100.00
71791;BME280;59638;52.126;5.434;2023-05-14T03:00:54;102072.81;;;9.99;100.00
71791;BME280;59638;52.126;5.434;2023-05-14T03:03:21;102080.00;;;9.97;100.00
71791;BME280;59638;52.126;5.434;2023-05-14T03:05:48;102080.19;;;9.94;100.00
71791;BME280;59638;52.126;5.434;2023-05-14T03:08:14;102077.78;;;9.91;100.00
71791;BME280;59638;52.126;5.434;2023-05-14T03:10:41;102078.06;;;9.87;100.00
71791;BME280;59638;52.126;5.434;2023-05-14T03:13:07;102068.66;;;9.82;100.00
71791;BME280;59638;52.126;5.434;2023-05-14T03:15:33;102069.00;;;9.78;100.00
71791;BME280;59638;52.126;5.434;2023-05-14T03:18:00;102068.22;;;9.76;100.00
71791;BME280;59638;52.126;5.434;2023-05-14T03:20:26;102075.41;;;9.74;100.00
71791;BME280;59638;52.126;5.434;2023-05-14T03:22:53;102074.66;;;9.72;100.00
71791;BME280;59638;52.126;5.434;2023-05-14T03:25:21;102072.97;;;9.71;100.00
71791;BME280;59638;52.126;5.434;2023-05-14T03:27:47;102076.53;;;9.70;100.00
71791;BME280;59638;52.126;5.434;2023-05-14T03:30:14;102075.81;;;9.68;100.00
71791;BME280;59638;52.126;5.434;2023-05-14T03:32:40;102067.72;;;9.71;100.00
71791;BME280;59638;52.126;5.434;2023-05-14T03:35:08;102079.00;;;9.73;100.00
71791;BME280;59638;52.126;5.434;2023-05-14T03:37:34;102072.75;;;9.74;100.00
71791;BME280;59638;52.126;5.434;2023-05-14T03:40:00;102073.50;;;9.76;100.00
71791;BME280;59638;52.126;5.434;2023-05-14T03:42:27;102083.19;;;9.75;100.00
71791;BME280;59638;52.126;5.434;2023-05-14T03:44:53;102069.91;;;9.77;100.00
71791;BME280;59638;52.126;5.434;2023-05-14T03:47:19;102073.84;;;9.84;100.00
71791;BME280;59638;52.126;5.434;2023-05-14T03:49:46;102072.91;;;9.85;100.00
71791;BME280;59638;52.126;5.434;2023-05-14T03:52:12;102066.44;;;9.89;100.00
71791;BME280;59638;52.126;5.434;2023-05-14T03:54:39;102074.28;;;9.91;100.00
71791;BME280;59638;52.126;5.434;2023-05-14T03:57:06;102062.69;;;9.93;100.00
71791;BME280;59638;52.126;5.434;2023-05-14T03:59:32;102058.91;;;9.97;100.00
71791;BME280;59638;52.126;5.434;2023-05-14T04:01:59;102062.38;;;9.98;100.00
71791;BME280;59638;52.126;5.434;2023-05-14T04:04:25;102062.25;;;9.99;100.00
71791;BME280;59638;52.126;5.434;2023-05-14T04:06:51;102060.34;;;10.01;100.00
71791;BME280;59638;52.126;5.434;2023-05-14T04:09:18;102057.59;;;10.03;100.00
71791;BME280;59638;52.126;5.434;2023-05-14T04:11:44;102052.97;;;10.06;100.00
71791;BME280;59638;52.126;5.434;2023-05-14T04:14:11;102050.22;;;10.08;100.00
71791;BME280;59638;52.126;5.434;2023-05-14T04:16:38;102055.50;;;10.08;100.00
71791;BME280;59638;52.126;5.434;2023-05-14T04:19:04;102056.56;;;10.05;100.00
71791;BME280;59638;52.126;5.434;2023-05-14T04:21:31;102047.81;;;10.05;100.00
71791;BME280;59638;52.126;5.434;2023-05-14T04:23:57;102053.94;;;10.05;100.00
71791;BME280;59638;52.126;5.434;2023-05-14T04:26:24;102055.63;;;10.06;100.00
71791;BME280;59638;52.126;5.434;2023-05-14T04:28:50;102057.19;;;10.09;100.00
71791;BME280;59638;52.126;5.434;2023-05-14T04:31:17;102052.75;;;10.09;100.00
71791;BME280;59638;52.126;5.434;2023-05-14T04:33:43;102049.91;;;10.13;100.00
71791;BME280;59638;52.126;5.434;2023-05-14T04:36:10;102048.75;;;10.17;100.00
71791;BME280;59638;52.126;5.434;2023-05-14T04:38:36;102056.28;;;10.23;100.00
71791;BME280;59638;52.126;5.434;2023-05-14T04:41:03;102048.88;;;10.28;100.00
71791;BME280;59638;52.126;5.434;2023-05-14T04:43:29;102059.97;;;10.33;100.00
71791;BME280;59638;52.126;5.434;2023-05-14T04:45:55;102053.56;;;10.37;100.00
71791;BME280;59638;52.126;5.434;2023-05-14T04:48:22;102054.38;;;10.50;100.00
71791;BME280;59638;52.126;5.434;2023-05-14T04:50:48;102048.22;;;10.62;100.00
71791;BME280;59638;52.126;5.434;2023-05-14T04:53:15;102050.22;;;10.72;100.00
71791;BME280;59638;52.126;5.434;2023-05-14T04:55:41;102054.84;;;10.81;100.00
71791;BME280;59638;52.126;5.434;2023-05-14T04:58:07;102051.84;;;10.98;100.00
71791;BME280;59638;52.126;5.434;2023-05-14T05:00:34;102044.59;;;11.13;100.00
71791;BME280;59638;52.126;5.434;2023-05-14T05:03:00;102050.66;;;11.26;100.00
71791;BME280;59638;52.126;5.434;2023-05-14T05:05:27;102055.91;;;11.39;100.00
71791;BME280;59638;52.126;5.434;2023-05-14T05:07:53;102057.97;;;11.47;100.00
71791;BME280;59638;52.126;5.434;2023-05-14T05:10:20;102057.53;;;11.53;100.00
71791;BME280;59638;52.126;5.434;2023-05-14T05:12:47;102055.00;;;11.51;100.00
71791;BME280;59638;52.126;5.434;2023-05-14T05:15:13;102060.28;;;11.51;100.00
71791;BME280;59638;52.126;5.434;2023-05-14T05:17:39;102059.19;;;11.54;100.00
71791;BME280;59638;52.126;5.434;2023-05-14T05:20:06;102053.78;;;11.55;100.00
71791;BME280;59638;52.126;5.434;2023-05-14T05:22:35;102059.94;;;11.56;100.00
71791;BME280;59638;52.126;5.434;2023-05-14T05:25:02;102051.16;;;11.55;100.00
71791;BME280;59638;52.126;5.434;2023-05-14T05:27:31;102052.84;;;11.56;100.00
71791;BME280;59638;52.126;5.434;2023-05-14T05:30:00;102057.44;;;11.65;100.00
71791;BME280;59638;52.126;5.434;2023-05-14T05:32:26;102065.63;;;11.74;100.00
71791;BME280;59638;52.126;5.434;2023-05-14T05:34:53;102071.97;;;11.84;100.00
71791;BME280;59638;52.126;5.434;2023-05-14T05:37:19;102067.84;;;11.80;100.00
71791;BME280;59638;52.126;5.434;2023-05-14T05:39:46;102070.88;;;11.86;100.00
71791;BME280;59638;52.126;5.434;2023-05-14T05:42:13;102065.13;;;11.92;100.00
71791;BME280;59638;52.126;5.434;2023-05-14T05:44:39;102061.41;;;11.95;100.00
71791;BME280;59638;52.126;5.434;2023-05-14T05:47:06;102060.94;;;11.90;100.00
71791;BME280;59638;52.126;5.434;2023-05-14T05:49:32;102070.28;;;11.83;100.00
71791;BME280;59638;52.126;5.434;2023-05-14T05:51:59;102070.16;;;11.84;100.00
71791;BME280;59638;52.126;5.434;2023-05-14T05:54:25;102078.31;;;11.81;100.00
71791;BME280;59638;52.126;5.434;2023-05-14T05:56:52;102073.66;;;11.85;100.00
71791;BME280;59638;52.126;5.434;2023-05-14T05:59:18;102076.31;;;11.85;100.00
71791;BME280;59638;52.126;5.434;2023-05-14T06:01:45;102075.84;;;11.91;100.00
71791;BME280;59638;52.126;5.434;2023-05-14T06:04:11;102073.69;;;11.96;100.00
71791;BME280;59638;52.126;5.434;2023-05-14T06:06:37;102073.44;;;11.99;100.00
71791;BME280;59638;52.126;5.434;2023-05-14T06:09:04;102075.13;;;12.00;100.00
71791;BME280;59638;52.126;5.434;2023-05-14T06:11:32;102078.41;;;12.04;100.00
71791;BME280;59638;52.126;5.434;2023-05-14T06:13:58;102072.53;;;12.11;100.00
71791;BME280;59638;52.126;5.434;2023-05-14T06:16:25;102067.25;;;12.22;100.00
71791;BME280;59638;52.126;5.434;2023-05-14T06:18:52;102085.53;;;12.25;100.00
71791;BME280;59638;52.126;5.434;2023-05-14T06:21:19;102085.19;;;12.30;100.00
71791;BME280;59638;52.126;5.434;2023-05-14T06:23:46;102081.22;;;12.47;100.00
71791;BME280;59638;52.126;5.434;2023-05-14T06:26:12;102074.47;;;12.65;100.00
71791;BME280;59638;52.126;5.434;2023-05-14T06:28:39;102086.06;;;12.75;100.00
71791;BME280;59638;52.126;5.434;2023-05-14T06:31:05;102087.00;;;12.86;100.00
71791;BME280;59638;52.126;5.434;2023-05-14T06:33:31;102095.91;;;12.96;100.00
71791;BME280;59638;52.126;5.434;2023-05-14T06:36:04;102084.06;;;13.00;99.43
71791;BME280;59638;52.126;5.434;2023-05-14T06:38:31;102081.28;;;13.13;99.14
71791;BME280;59638;52.126;5.434;2023-05-14T06:40:57;102074.88;;;13.26;98.70
71791;BME280;59638;52.126;5.434;2023-05-14T06:43:24;102076.94;;;13.34;98.23
71791;BME280;59638;52.126;5.434;2023-05-14T06:45:51;102073.50;;;13.75;97.07
71791;BME280;59638;52.126;5.434;2023-05-14T06:48:17;102081.03;;;14.42;94.49
71791;BME280;59638;52.126;5.434;2023-05-14T06:50:46;102084.53;;;14.64;93.93
71791;BME280;59638;52.126;5.434;2023-05-14T06:53:13;102063.91;;;14.96;92.36
71791;BME280;59638;52.126;5.434;2023-05-14T06:55:39;102066.44;;;14.88;91.45
71791;BME280;59638;52.126;5.434;2023-05-14T06:58:06;102063.47;;;14.91;91.44
71791;BME280;59638;52.126;5.434;2023-05-14T07:00:33;102062.31;;;15.34;89.62
71791;BME280;59638;52.126;5.434;2023-05-14T07:02:59;102059.31;;;16.15;86.93
71791;BME280;59638;52.126;5.434;2023-05-14T07:05:26;102061.28;;;16.50;83.41
71791;BME280;59638;52.126;5.434;2023-05-14T07:07:52;102048.75;;;16.33;83.82
71791;BME280;59638;52.126;5.434;2023-05-14T07:10:19;102065.38;;;16.07;83.45
71791;BME280;59638;52.126;5.434;2023-05-14T07:12:45;102065.81;;;15.83;85.40
71791;BME280;59638;52.126;5.434;2023-05-14T07:15:12;102058.91;;;16.19;85.38
71791;BME280;59638;52.126;5.434;2023-05-14T07:17:38;102060.88;;;16.82;83.53
71791;BME280;59638;52.126;5.434;2023-05-14T07:20:05;102065.84;;;17.40;80.38
71791;BME280;59638;52.126;5.434;2023-05-14T07:22:32;102063.88;;;17.78;79.00
71791;BME280;59638;52.126;5.434;2023-05-14T07:24:58;102059.19;;;18.24;77.22
71791;BME280;59638;52.126;5.434;2023-05-14T07:27:25;102050.59;;;18.80;74.46
71791;BME280;59638;52.126;5.434;2023-05-14T07:29:51;102061.03;;;18.99;74.92
71791;BME280;59638;52.126;5.434;2023-05-14T07:32:18;102053.09;;;19.56;71.07
71791;BME280;59638;52.126;5.434;2023-05-14T07:34:44;102050.13;;;19.68;70.75
71791;BME280;59638;52.126;5.434;2023-05-14T07:37:11;102053.63;;;19.76;69.83
71791;BME280;59638;52.126;5.434;2023-05-14T07:39:37;102051.81;;;20.41;69.00
71791;BME280;59638;52.126;5.434;2023-05-14T07:42:04;102056.00;;;20.51;69.06
71791;BME280;59638;52.126;5.434;2023-05-14T07:44:31;102047.25;;;20.57;67.22
71791;BME280;59638;52.126;5.434;2023-05-14T07:46:57;102047.38;;;20.64;66.38
71791;BME280;59638;52.126;5.434;2023-05-14T07:49:23;102032.41;;;20.78;68.01
71791;BME280;59638;52.126;5.434;2023-05-14T07:51:50;102047.38;;;20.64;70.13
71791;BME280;59638;52.126;5.434;2023-05-14T07:54:16;102044.16;;;20.29;70.25
71791;BME280;59638;52.126;5.434;2023-05-14T07:56:43;102043.91;;;20.55;67.92
71791;BME280;59638;52.126;5.434;2023-05-14T07:59:09;102039.34;;;20.95;66.55
71791;BME280;59638;52.126;5.434;2023-05-14T08:01:36;102041.53;;;21.23;64.55
71791;BME280;59638;52.126;5.434;2023-05-14T08:04:04;102044.84;;;21.02;65.99
71791;BME280;59638;52.126;5.434;2023-05-14T08:06:31;102045.63;;;20.79;66.90
71791;BME280;59638;52.126;5.434;2023-05-14T08:08:57;102032.91;;;20.81;67.74
71791;BME280;59638;52.126;5.434;2023-05-14T08:11:24;102046.56;;;20.08;68.38
71791;BME280;59638;52.126;5.434;2023-05-14T08:13:51;102048.53;;;20.22;68.02
71791;BME280;59638;52.126;5.434;2023-05-14T08:16:17;102042.09;;;20.48;68.80
71791;BME280;59638;52.126;5.434;2023-05-14T08:18:44;102039.34;;;20.95;66.34
71791;BME280;59638;52.126;5.434;2023-05-14T08:21:10;102042.03;;;21.26;65.90
71791;BME280;59638;52.126;5.434;2023-05-14T08:23:36;102042.88;;;21.87;64.63
71791;BME280;59638;52.126;5.434;2023-05-14T08:26:03;102047.97;;;22.71;62.18
71791;BME280;59638;52.126;5.434;2023-05-14T08:28:29;102031.78;;;23.43;59.07
71791;BME280;59638;52.126;5.434;2023-05-14T08:30:56;102035.72;;;23.19;59.65
71791;BME280;59638;52.126;5.434;2023-05-14T08:33:22;102038.22;;;23.64;57.72
71791;BME280;59638;52.126;5.434;2023-05-14T08:35:51;102034.31;;;23.94;56.59
71791;BME280;59638;52.126;5.434;2023-05-14T08:38:18;102034.94;;;24.24;56.10
71791;BME280;59638;52.126;5.434;2023-05-14T08:40:48;102034.69;;;24.54;54.40
71791;BME280;59638;52.126;5.434;2023-05-14T08:43:25;102035.06;;;24.44;55.15
71791;BME280;59638;52.126;5.434;2023-05-14T08:45:57;102032.31;;;24.92;55.12
71791;BME280;59638;52.126;5.434;2023-05-14T08:48:28;102027.66;;;25.60;51.78
71791;BME280;59638;52.126;5.434;2023-05-14T08:50:58;102018.25;;;26.09;49.10
71791;BME280;59638;52.126;5.434;2023-05-14T08:53:25;102008.09;;;25.71;51.24
71791;BME280;59638;52.126;5.434;2023-05-14T08:55:52;102017.47;;;25.36;52.03
71791;BME280;59638;52.126;5.434;2023-05-14T08:58:19;102017.44;;;25.09;51.66
71791;BME280;59638;52.126;5.434;2023-05-14T09:00:46;102022.56;;;24.98;53.10
71791;BME280;59638;52.126;5.434;2023-05-14T09:03:13;102015.38;;;25.18;50.38
71791;BME280;59638;52.126;5.434;2023-05-14T09:05:40;102017.78;;;24.93;50.79
71791;BME280;59638;52.126;5.434;2023-05-14T09:08:06;102012.59;;;24.91;52.25
71791;BME280;59638;52.126;5.434;2023-05-14T09:10:33;102007.66;;;25.15;50.38
71791;BME280;59638;52.126;5.434;2023-05-14T09:12:59;102007.03;;;25.99;49.03
71791;BME280;59638;52.126;5.434;2023-05-14T09:15:26;102007.28;;;25.78;49.58
71791;BME280;59638;52.126;5.434;2023-05-14T09:17:55;102001.66;;;25.72;49.80
71791;BME280;59638;52.126;5.434;2023-05-14T09:20:23;102003.97;;;25.49;50.40
71791;BME280;59638;52.126;5.434;2023-05-14T09:22:53;102004.16;;;25.54;49.12
71791;BME280;59638;52.126;5.434;2023-05-14T09:25:25;102000.81;;;25.26;49.99
71791;BME280;59638;52.126;5.434;2023-05-14T09:27:52;101992.50;;;25.87;50.25
71791;BME280;59638;52.126;5.434;2023-05-14T09:30:23;101990.13;;;26.23;48.52
71791;BME280;59638;52.126;5.434;2023-05-14T09:32:52;101985.16;;;26.00;50.22
71791;BME280;59638;52.126;5.434;2023-05-14T09:35:21;101986.25;;;25.86;48.34
71791;BME280;59638;52.126;5.434;2023-05-14T09:37:52;101985.78;;;26.09;50.00
71791;BME280;59638;52.126;5.434;2023-05-14T09:40:20;101989.66;;;26.26;49.22
71791;BME280;59638;52.126;5.434;2023-05-14T09:42:49;101978.66;;;27.11;48.09
71791;BME280;59638;52.126;5.434;2023-05-14T09:45:16;101983.75;;;27.51;45.29
71791;BME280;59638;52.126;5.434;2023-05-14T09:47:42;101977.66;;;27.80;44.40
71791;BME280;59638;52.126;5.434;2023-05-14T09:50:10;101976.75;;;28.05;44.84
71791;BME280;59638;52.126;5.434;2023-05-14T09:52:37;101973.13;;;28.11;43.98
71791;BME280;59638;52.126;5.434;2023-05-14T09:55:04;101979.84;;;28.08;43.56
71791;BME280;59638;52.126;5.434;2023-05-14T09:57:31;101974.78;;;27.75;46.78
71791;BME280;59638;52.126;5.434;2023-05-14T09:59:58;101975.97;;;27.79;44.12
71791;BME280;59638;52.126;5.434;2023-05-14T10:02:30;101971.25;;;27.75;43.54
71791;BME280;59638;52.126;5.434;2023-05-14T10:05:06;101966.34;;;27.83;44.89
71791;BME280;59638;52.126;5.434;2023-05-14T10:07:38;101972.38;;;28.22;43.33
71791;BME280;59638;52.126;5.434;2023-05-14T10:10:07;101964.81;;;28.06;42.92
71791;BME280;59638;52.126;5.434;2023-05-14T10:12:38;101966.78;;;28.17;41.94
71791;BME280;59638;52.126;5.434;2023-05-14T10:15:16;101960.16;;;27.76;44.70
71791;BME280;59638;52.126;5.434;2023-05-14T10:17:48;101960.63;;;27.48;42.54
71791;BME280;59638;52.126;5.434;2023-05-14T10:20:14;101958.03;;;27.78;42.25
71791;BME280;59638;52.126;5.434;2023-05-14T10:22:42;101957.38;;;27.58;43.50
71791;BME280;59638;52.126;5.434;2023-05-14T10:25:09;101960.00;;;26.90;44.68
71791;BME280;59638;52.126;5.434;2023-05-14T10:27:36;101948.00;;;27.35;44.80
71791;BME280;59638;52.126;5.434;2023-05-14T10:30:05;101948.47;;;27.76;43.31
71791;BME280;59638;52.126;5.434;2023-05-14T10:32:36;101949.13;;;27.46;43.64
71791;BME280;59638;52.126;5.434;2023-05-14T10:35:15;101936.09;;;27.98;45.17
71791;BME280;59638;52.126;5.434;2023-05-14T10:37:43;101942.97;;;28.67;40.34
71791;BME280;59638;52.126;5.434;2023-05-14T10:40:11;101943.19;;;28.66;40.37
71791;BME280;59638;52.126;5.434;2023-05-14T10:42:39;101945.38;;;28.27;41.42
71791;BME280;59638;52.126;5.434;2023-05-14T10:45:10;101940.66;;;27.18;46.14
71791;BME280;59638;52.126;5.434;2023-05-14T10:47:40;101941.25;;;27.45;43.92
71791;BME280;59638;52.126;5.434;2023-05-14T10:50:10;101940.88;;;27.59;43.47
71791;BME280;59638;52.126;5.434;2023-05-14T10:52:36;101933.69;;;27.47;42.76
71791;BME280;59638;52.126;5.434;2023-05-14T10:55:04;101925.09;;;27.31;43.79
71791;BME280;59638;52.126;5.434;2023-05-14T10:57:37;101930.38;;;26.95;45.12
71791;BME280;59638;52.126;5.434;2023-05-14T11:00:04;101923.56;;;27.17;42.36
71791;BME280;59638;52.126;5.434;2023-05-14T11:02:37;101922.22;;;26.25;46.95
71791;BME280;59638;52.126;5.434;2023-05-14T11:05:09;101915.69;;;26.46;46.40
71791;BME280;59638;52.126;5.434;2023-05-14T11:07:40;101914.91;;;27.02;44.35
71791;BME280;59638;52.126;5.434;2023-05-14T11:10:11;101910.94;;;26.41;46.21
71791;BME280;59638;52.126;5.434;2023-05-14T11:12:40;101915.69;;;26.46;46.68
71791;BME280;59638;52.126;5.434;2023-05-14T11:15:08;101917.09;;;26.87;44.94
71791;BME280;59638;52.126;5.434;2023-05-14T11:17:36;101911.00;;;26.91;47.33
71791;BME280;59638;52.126;5.434;2023-05-14T11:20:04;101910.09;;;27.72;46.70
71791;BME280;59638;52.126;5.434;2023-05-14T11:22:31;101907.09;;;27.80;42.34
71791;BME280;59638;52.126;5.434;2023-05-14T11:24:58;101900.69;;;27.93;44.14
71791;BME280;59638;52.126;5.434;2023-05-14T11:27:24;101898.22;;;27.67;43.42
71791;BME280;59638;52.126;5.434;2023-05-14T11:29:51;101893.06;;;27.22;47.19
71791;BME280;59638;52.126;5.434;2023-05-14T11:32:18;101906.88;;;26.57;47.91
71791;BME280;59638;52.126;5.434;2023-05-14T11:34:45;101899.13;;;26.22;49.09
71791;BME280;59638;52.126;5.434;2023-05-14T11:37:14;101900.44;;;26.07;47.96
71791;BME280;59638;52.126;5.434;2023-05-14T11:39:53;101890.53;;;25.81;48.10
71791;BME280;59638;52.126;5.434;2023-05-14T11:42:21;101885.81;;;26.14;47.40
71791;BME280;59638;52.126;5.434;2023-05-14T11:44:49;101893.59;;;26.04;47.48
71791;BME280;59638;52.126;5.434;2023-05-14T11:47:18;101894.81;;;25.30;48.05
71791;BME280;59638;52.126;5.434;2023-05-14T11:49:45;101886.00;;;24.68;50.74
71791;BME280;59638;52.126;5.434;2023-05-14T11:52:13;101881.31;;;24.23;52.55
71791;BME280;59638;52.126;5.434;2023-05-14T11:54:41;101886.09;;;23.73;53.84
71791;BME280;59638;52.126;5.434;2023-05-14T11:57:14;101882.16;;;23.75;55.65
71791;BME280;59638;52.126;5.434;2023-05-14T11:59:41;101888.28;;;23.63;56.02
71791;BME280;59638;52.126;5.434;2023-05-14T12:02:12;101884.25;;;23.45;53.69
71791;BME280;59638;52.126;5.434;2023-05-14T12:04:40;101881.13;;;23.76;54.35
71791;BME280;59638;52.126;5.434;2023-05-14T12:07:12;101871.03;;;23.92;54.12
71791;BME280;59638;52.126;5.434;2023-05-14T12:09:42;101867.19;;;24.21;50.82
71791;BME280;59638;52.126;5.434;2023-05-14T12:12:23;101870.03;;;23.99;55.32
71791;BME280;59638;52.126;5.434;2023-05-14T12:14:50;101871.72;;;24.07;53.24
71791;BME280;59638;52.126;5.434;2023-05-14T12:17:19;101857.44;;;24.20;52.04
71791;BME280;59638;52.126;5.434;2023-05-14T12:19:48;101862.13;;;23.91;52.74
71791;BME280;59638;52.126;5.434;2023-05-14T12:22:20;101859.19;;;23.86;53.05
71791;BME280;59638;52.126;5.434;2023-05-14T12:24:55;101861.22;;;23.77;54.22
71791;BME280;59638;52.126;5.434;2023-05-14T12:27:23;101860.78;;;23.74;50.44
71791;BME280;59638;52.126;5.434;2023-05-14T12:30:17;101855.41;;;23.74;52.51
71791;BME280;59638;52.126;5.434;2023-05-14T12:32:59;101855.72;;;23.57;52.37
71791;BME280;59638;52.126;5.434;2023-05-14T12:35:25;101852.34;;;23.55;55.09
71791;BME280;59638;52.126;5.434;2023-05-14T12:37:52;101851.28;;;23.78;54.93
71791;BME280;59638;52.126;5.434;2023-05-14T12:40:19;101849.06;;;23.60;51.71
71791;BME280;59638;52.126;5.434;2023-05-14T12:42:45;101847.47;;;23.31;55.95
71791;BME280;59638;52.126;5.434;2023-05-14T12:45:11;101843.84;;;23.52;53.70
71791;BME280;59638;52.126;5.434;2023-05-14T12:47:38;101832.38;;;23.43;56.46
71791;BME280;59638;52.126;5.434;2023-05-14T12:50:05;101832.97;;;23.67;56.79
71791;BME280;59638;52.126;5.434;2023-05-14T12:52:31;101837.94;;;23.70;60.76